Melton Mowbray, United Kingdom
Current Conditions -  °F | °C
As of 12:20 PM on Friday 24 Oct 2014 (Local Time) from EGNX Reporting Station
Drizzle Drizzle  
Wind Chill: 15°   Ceiling: 1800
Heat Index: 15°   Visibility: 6mi
Dew Point: 13°   Wind: 10mph
Humidity: 88%   Direction: 220°SW
Pressure: 29.88"   Gusts: NA
Location:  52.76°N, 0.89°W
Report Text: EGNX 241120Z 22009KT 9999 -DZ SCT010 BKN018 15/13 Q1012
Loading
Personal Weather Stations






























Interactive Weather Map
Tropical Storm Tracking
New forecast layout! Learn more

10-Day Weather Forecast

Advertisements
Track Severe Weather on mobile